sensor_id;sensor_type;location;lat;lon;timestamp;P1;durP1;ratioP1;P2;durP2;ratioP2
45764;SDS011;31474;45.332;10.230;2024-02-23T00:00:27;4.07;;;3.35;;
45764;SDS011;31474;45.332;10.230;2024-02-23T00:02:53;5.05;;;3.65;;
45764;SDS011;31474;45.332;10.230;2024-02-23T00:05:23;3.30;;;3.00;;
45764;SDS011;31474;45.332;10.230;2024-02-23T00:07:49;4.70;;;4.15;;
45764;SDS011;31474;45.332;10.230;2024-02-23T00:10:14;3.70;;;3.17;;
45764;SDS011;31474;45.332;10.230;2024-02-23T00:12:40;3.78;;;3.38;;
45764;SDS011;31474;45.332;10.230;2024-02-23T00:15:06;4.45;;;3.60;;
45764;SDS011;31474;45.332;10.230;2024-02-23T00:17:32;3.60;;;3.13;;
45764;SDS011;31474;45.332;10.230;2024-02-23T00:19:58;5.20;;;3.63;;
45764;SDS011;31474;45.332;10.230;2024-02-23T00:22:24;3.30;;;3.00;;
45764;SDS011;31474;45.332;10.230;2024-02-23T00:24:50;5.63;;;3.42;;
45764;SDS011;31474;45.332;10.230;2024-02-23T00:27:16;3.40;;;2.95;;
45764;SDS011;31474;45.332;10.230;2024-02-23T00:29:42;3.95;;;3.15;;
45764;SDS011;31474;45.332;10.230;2024-02-23T00:32:08;3.42;;;3.13;;
45764;SDS011;31474;45.332;10.230;2024-02-23T00:34:34;4.28;;;3.33;;
45764;SDS011;31474;45.332;10.230;2024-02-23T00:37:00;3.85;;;3.45;;
45764;SDS011;31474;45.332;10.230;2024-02-23T00:39:27;3.97;;;3.40;;
45764;SDS011;31474;45.332;10.230;2024-02-23T00:41:52;3.67;;;3.10;;
45764;SDS011;31474;45.332;10.230;2024-02-23T00:44:18;3.25;;;2.75;;
45764;SDS011;31474;45.332;10.230;2024-02-23T00:46:44;3.88;;;3.28;;
45764;SDS011;31474;45.332;10.230;2024-02-23T00:49:09;3.67;;;3.13;;
45764;SDS011;31474;45.332;10.230;2024-02-23T00:51:35;4.35;;;3.30;;
45764;SDS011;31474;45.332;10.230;2024-02-23T00:54:01;3.42;;;3.13;;
45764;SDS011;31474;45.332;10.230;2024-02-23T00:56:26;3.83;;;3.15;;
45764;SDS011;31474;45.332;10.230;2024-02-23T00:58:52;3.60;;;2.60;;
45764;SDS011;31474;45.332;10.230;2024-02-23T01:01:18;4.72;;;3.50;;
45764;SDS011;31474;45.332;10.230;2024-02-23T01:03:44;2.95;;;2.40;;
45764;SDS011;31474;45.332;10.230;2024-02-23T01:06:09;4.07;;;3.10;;
45764;SDS011;31474;45.332;10.230;2024-02-23T01:08:35;3.17;;;2.75;;
45764;SDS011;31474;45.332;10.230;2024-02-23T01:11:01;4.28;;;3.15;;
45764;SDS011;31474;45.332;10.230;2024-02-23T01:13:26;4.65;;;2.80;;
45764;SDS011;31474;45.332;10.230;2024-02-23T01:15:52;5.57;;;3.65;;
45764;SDS011;31474;45.332;10.230;2024-02-23T01:18:19;3.40;;;3.10;;
45764;SDS011;31474;45.332;10.230;2024-02-23T01:20:44;3.35;;;2.88;;
45764;SDS011;31474;45.332;10.230;2024-02-23T01:23:10;2.75;;;2.55;;
45764;SDS011;31474;45.332;10.230;2024-02-23T01:25:36;4.10;;;3.20;;
45764;SDS011;31474;45.332;10.230;2024-02-23T01:28:02;2.60;;;2.13;;
45764;SDS011;31474;45.332;10.230;2024-02-23T01:30:28;3.53;;;3.15;;
45764;SDS011;31474;45.332;10.230;2024-02-23T01:32:54;2.83;;;2.50;;
45764;SDS011;31474;45.332;10.230;2024-02-23T01:35:19;4.45;;;2.60;;
45764;SDS011;31474;45.332;10.230;2024-02-23T01:37:45;3.50;;;2.70;;
45764;SDS011;31474;45.332;10.230;2024-02-23T01:40:11;6.20;;;3.30;;
45764;SDS011;31474;45.332;10.230;2024-02-23T01:42:37;2.88;;;2.47;;
45764;SDS011;31474;45.332;10.230;2024-02-23T01:45:03;3.72;;;2.80;;
45764;SDS011;31474;45.332;10.230;2024-02-23T01:47:29;3.15;;;2.85;;
45764;SDS011;31474;45.332;10.230;2024-02-23T01:49:56;3.72;;;3.42;;
45764;SDS011;31474;45.332;10.230;2024-02-23T01:52:24;2.40;;;2.20;;
45764;SDS011;31474;45.332;10.230;2024-02-23T01:54:50;4.28;;;2.97;;
45764;SDS011;31474;45.332;10.230;2024-02-23T01:57:16;2.88;;;2.60;;
45764;SDS011;31474;45.332;10.230;2024-02-23T01:59:42;3.17;;;2.53;;
45764;SDS011;31474;45.332;10.230;2024-02-23T02:02:08;2.67;;;2.13;;
45764;SDS011;31474;45.332;10.230;2024-02-23T02:04:34;3.70;;;2.75;;
45764;SDS011;31474;45.332;10.230;2024-02-23T02:07:00;3.30;;;2.08;;
45764;SDS011;31474;45.332;10.230;2024-02-23T02:09:26;3.13;;;2.30;;
45764;SDS011;31474;45.332;10.230;2024-02-23T02:11:52;2.50;;;2.28;;
45764;SDS011;31474;45.332;10.230;2024-02-23T02:14:18;3.55;;;2.55;;
45764;SDS011;31474;45.332;10.230;2024-02-23T02:16:44;2.25;;;1.98;;
45764;SDS011;31474;45.332;10.230;2024-02-23T02:19:10;2.38;;;2.13;;
45764;SDS011;31474;45.332;10.230;2024-02-23T02:21:36;2.75;;;2.30;;
45764;SDS011;31474;45.332;10.230;2024-02-23T02:24:02;4.53;;;2.85;;
45764;SDS011;31474;45.332;10.230;2024-02-23T02:26:28;3.10;;;2.50;;
45764;SDS011;31474;45.332;10.230;2024-02-23T02:28:55;2.92;;;2.20;;
45764;SDS011;31474;45.332;10.230;2024-02-23T02:31:20;2.53;;;2.25;;
45764;SDS011;31474;45.332;10.230;2024-02-23T02:33:46;2.90;;;2.28;;
45764;SDS011;31474;45.332;10.230;2024-02-23T02:36:11;2.85;;;2.25;;
45764;SDS011;31474;45.332;10.230;2024-02-23T02:38:37;3.15;;;2.58;;
45764;SDS011;31474;45.332;10.230;2024-02-23T02:41:03;2.72;;;2.10;;
45764;SDS011;31474;45.332;10.230;2024-02-23T02:43:29;3.58;;;2.47;;
45764;SDS011;31474;45.332;10.230;2024-02-23T02:45:56;2.17;;;1.90;;
45764;SDS011;31474;45.332;10.230;2024-02-23T02:48:22;3.50;;;2.38;;
45764;SDS011;31474;45.332;10.230;2024-02-23T02:50:48;2.28;;;2.00;;
45764;SDS011;31474;45.332;10.230;2024-02-23T02:53:14;3.65;;;2.60;;
45764;SDS011;31474;45.332;10.230;2024-02-23T02:55:43;2.30;;;1.88;;
45764;SDS011;31474;45.332;10.230;2024-02-23T02:58:12;2.60;;;2.20;;
45764;SDS011;31474;45.332;10.230;2024-02-23T03:00:38;2.78;;;2.20;;
45764;SDS011;31474;45.332;10.230;2024-02-23T03:03:05;2.67;;;2.13;;
45764;SDS011;31474;45.332;10.230;2024-02-23T03:05:31;2.10;;;1.90;;
45764;SDS011;31474;45.332;10.230;2024-02-23T03:07:57;3.63;;;2.60;;
45764;SDS011;31474;45.332;10.230;2024-02-23T03:10:22;3.05;;;2.17;;
45764;SDS011;31474;45.332;10.230;2024-02-23T03:12:48;2.50;;;1.92;;
45764;SDS011;31474;45.332;10.230;2024-02-23T03:15:14;3.38;;;2.63;;
45764;SDS011;31474;45.332;10.230;2024-02-23T03:17:40;2.60;;;2.38;;
45764;SDS011;31474;45.332;10.230;2024-02-23T03:20:05;2.65;;;1.90;;
45764;SDS011;31474;45.332;10.230;2024-02-23T03:22:35;3.00;;;2.10;;
45764;SDS011;31474;45.332;10.230;2024-02-23T03:25:01;2.70;;;2.20;;
45764;SDS011;31474;45.332;10.230;2024-02-23T03:27:33;1.95;;;1.75;;
45764;SDS011;31474;45.332;10.230;2024-02-23T03:29:59;2.90;;;1.77;;
45764;SDS011;31474;45.332;10.230;2024-02-23T03:32:25;2.08;;;1.55;;
45764;SDS011;31474;45.332;10.230;2024-02-23T03:34:51;2.55;;;1.80;;
45764;SDS011;31474;45.332;10.230;2024-02-23T03:37:16;2.85;;;2.22;;
45764;SDS011;31474;45.332;10.230;2024-02-23T03:39:42;3.40;;;2.83;;
45764;SDS011;31474;45.332;10.230;2024-02-23T03:42:08;2.40;;;1.85;;
45764;SDS011;31474;45.332;10.230;2024-02-23T03:44:33;2.25;;;2.00;;
45764;SDS011;31474;45.332;10.230;2024-02-23T03:46:59;3.10;;;1.77;;
45764;SDS011;31474;45.332;10.230;2024-02-23T03:49:25;2.55;;;1.83;;
45764;SDS011;31474;45.332;10.230;2024-02-23T03:51:50;2.78;;;2.10;;
45764;SDS011;31474;45.332;10.230;2024-02-23T03:54:16;2.17;;;1.98;;
45764;SDS011;31474;45.332;10.230;2024-02-23T03:56:41;2.95;;;1.60;;
45764;SDS011;31474;45.332;10.230;2024-02-23T03:59:08;2.97;;;2.08;;
45764;SDS011;31474;45.332;10.230;2024-02-23T04:01:37;1.67;;;1.35;;
45764;SDS011;31474;45.332;10.230;2024-02-23T04:04:04;2.65;;;2.15;;
45764;SDS011;31474;45.332;10.230;2024-02-23T04:06:30;2.00;;;1.73;;
45764;SDS011;31474;45.332;10.230;2024-02-23T04:08:56;2.08;;;1.70;;
45764;SDS011;31474;45.332;10.230;2024-02-23T04:11:21;1.55;;;1.45;;
45764;SDS011;31474;45.332;10.230;2024-02-23T04:13:47;2.63;;;2.10;;
45764;SDS011;31474;45.332;10.230;2024-02-23T04:16:12;2.25;;;1.52;;
45764;SDS011;31474;45.332;10.230;2024-02-23T04:18:38;2.08;;;1.83;;
45764;SDS011;31474;45.332;10.230;2024-02-23T04:21:04;2.72;;;1.80;;
45764;SDS011;31474;45.332;10.230;2024-02-23T04:23:30;3.03;;;1.73;;
45764;SDS011;31474;45.332;10.230;2024-02-23T04:25:55;2.83;;;1.50;;
45764;SDS011;31474;45.332;10.230;2024-02-23T04:28:21;2.00;;;1.77;;
45764;SDS011;31474;45.332;10.230;2024-02-23T04:30:47;2.60;;;1.50;;
45764;SDS011;31474;45.332;10.230;2024-02-23T04:33:12;3.17;;;1.83;;
45764;SDS011;31474;45.332;10.230;2024-02-23T04:35:38;2.60;;;1.83;;
45764;SDS011;31474;45.332;10.230;2024-02-23T04:38:04;1.50;;;1.23;;
45764;SDS011;31474;45.332;10.230;2024-02-23T04:40:29;2.50;;;1.92;;
45764;SDS011;31474;45.332;10.230;2024-02-23T04:42:55;2.20;;;1.58;;
45764;SDS011;31474;45.332;10.230;2024-02-23T04:45:21;2.97;;;1.75;;
45764;SDS011;31474;45.332;10.230;2024-02-23T04:47:46;2.08;;;1.45;;
45764;SDS011;31474;45.332;10.230;2024-02-23T04:50:13;2.10;;;1.83;;
45764;SDS011;31474;45.332;10.230;2024-02-23T04:52:39;1.58;;;1.38;;
45764;SDS011;31474;45.332;10.230;2024-02-23T04:55:04;1.80;;;1.60;;
45764;SDS011;31474;45.332;10.230;2024-02-23T04:57:31;1.75;;;1.25;;
45764;SDS011;31474;45.332;10.230;2024-02-23T04:59:57;1.70;;;1.40;;
45764;SDS011;31474;45.332;10.230;2024-02-23T05:02:23;2.35;;;1.58;;
45764;SDS011;31474;45.332;10.230;2024-02-23T05:04:48;1.90;;;1.35;;
45764;SDS011;31474;45.332;10.230;2024-02-23T05:07:14;1.60;;;1.27;;
45764;SDS011;31474;45.332;10.230;2024-02-23T05:09:40;1.73;;;1.40;;
45764;SDS011;31474;45.332;10.230;2024-02-23T05:12:07;2.05;;;1.80;;
45764;SDS011;31474;45.332;10.230;2024-02-23T05:14:33;1.55;;;1.25;;
45764;SDS011;31474;45.332;10.230;2024-02-23T05:16:59;3.08;;;1.70;;
45764;SDS011;31474;45.332;10.230;2024-02-23T05:19:24;2.08;;;1.65;;
45764;SDS011;31474;45.332;10.230;2024-02-23T05:21:50;2.63;;;1.77;;
45764;SDS011;31474;45.332;10.230;2024-02-23T05:24:16;2.08;;;1.55;;
45764;SDS011;31474;45.332;10.230;2024-02-23T05:26:41;1.55;;;1.35;;
45764;SDS011;31474;45.332;10.230;2024-02-23T05:29:09;1.67;;;1.27;;
45764;SDS011;31474;45.332;10.230;2024-02-23T05:31:45;1.92;;;1.73;;
45764;SDS011;31474;45.332;10.230;2024-02-23T05:34:13;2.17;;;1.70;;
45764;SDS011;31474;45.332;10.230;2024-02-23T05:36:39;1.92;;;1.50;;
45764;SDS011;31474;45.332;10.230;2024-02-23T05:39:05;3.55;;;1.73;;
45764;SDS011;31474;45.332;10.230;2024-02-23T05:41:32;2.05;;;1.48;;
45764;SDS011;31474;45.332;10.230;2024-02-23T05:43:58;2.17;;;1.90;;
45764;SDS011;31474;45.332;10.230;2024-02-23T05:46:24;2.17;;;1.52;;
45764;SDS011;31474;45.332;10.230;2024-02-23T05:48:49;3.53;;;1.75;;
45764;SDS011;31474;45.332;10.230;2024-02-23T05:51:15;2.08;;;1.25;;
45764;SDS011;31474;45.332;10.230;2024-02-23T05:53:41;3.92;;;1.70;;
45764;SDS011;31474;45.332;10.230;2024-02-23T05:56:06;2.22;;;1.70;;
45764;SDS011;31474;45.332;10.230;2024-02-23T05:58:32;2.50;;;1.48;;
45764;SDS011;31474;45.332;10.230;2024-02-23T06:00:58;1.70;;;1.45;;
45764;SDS011;31474;45.332;10.230;2024-02-23T06:03:23;2.83;;;1.50;;
45764;SDS011;31474;45.332;10.230;2024-02-23T06:05:49;3.13;;;1.60;;
45764;SDS011;31474;45.332;10.230;2024-02-23T06:08:15;3.00;;;1.40;;
45764;SDS011;31474;45.332;10.230;2024-02-23T06:10:41;4.15;;;1.60;;
45764;SDS011;31474;45.332;10.230;2024-02-23T06:13:08;2.28;;;1.58;;
45764;SDS011;31474;45.332;10.230;2024-02-23T06:15:33;1.95;;;1.52;;
45764;SDS011;31474;45.332;10.230;2024-02-23T06:17:59;2.20;;;1.45;;
45764;SDS011;31474;45.332;10.230;2024-02-23T06:20:25;1.85;;;1.25;;
45764;SDS011;31474;45.332;10.230;2024-02-23T06:22:50;5.63;;;1.70;;
45764;SDS011;31474;45.332;10.230;2024-02-23T06:25:16;1.92;;;1.55;;
45764;SDS011;31474;45.332;10.230;2024-02-23T06:27:42;3.10;;;1.58;;
45764;SDS011;31474;45.332;10.230;2024-02-23T06:30:07;5.85;;;2.00;;
45764;SDS011;31474;45.332;10.230;2024-02-23T06:32:33;1.98;;;1.42;;
45764;SDS011;31474;45.332;10.230;2024-02-23T06:34:59;3.25;;;1.48;;
45764;SDS011;31474;45.332;10.230;2024-02-23T06:37:25;2.10;;;1.55;;
45764;SDS011;31474;45.332;10.230;2024-02-23T06:39:50;2.00;;;1.42;;
45764;SDS011;31474;45.332;10.230;2024-02-23T06:42:19;1.85;;;1.50;;
45764;SDS011;31474;45.332;10.230;2024-02-23T06:44:46;1.38;;;1.27;;
45764;SDS011;31474;45.332;10.230;2024-02-23T06:47:12;2.28;;;1.50;;
45764;SDS011;31474;45.332;10.230;2024-02-23T06:49:41;1.65;;;1.55;;
45764;SDS011;31474;45.332;10.230;2024-02-23T06:52:07;1.70;;;1.35;;
45764;SDS011;31474;45.332;10.230;2024-02-23T06:54:33;1.90;;;1.40;;
45764;SDS011;31474;45.332;10.230;2024-02-23T06:56:59;2.95;;;1.38;;
45764;SDS011;31474;45.332;10.230;2024-02-23T06:59:25;3.10;;;1.88;;
45764;SDS011;31474;45.332;10.230;2024-02-23T07:01:51;10.05;;;2.17;;
45764;SDS011;31474;45.332;10.230;2024-02-23T07:04:17;2.53;;;1.25;;
45764;SDS011;31474;45.332;10.230;2024-02-23T07:06:43;2.03;;;1.67;;
45764;SDS011;31474;45.332;10.230;2024-02-23T07:09:09;1.52;;;1.35;;
45764;SDS011;31474;45.332;10.230;2024-02-23T07:11:36;2.88;;;1.65;;
45764;SDS011;31474;45.332;10.230;2024-02-23T07:14:03;2.47;;;1.27;;
45764;SDS011;31474;45.332;10.230;2024-02-23T07:16:28;2.45;;;1.40;;
45764;SDS011;31474;45.332;10.230;2024-02-23T07:18:54;1.83;;;1.20;;
45764;SDS011;31474;45.332;10.230;2024-02-23T07:21:20;3.20;;;1.67;;
45764;SDS011;31474;45.332;10.230;2024-02-23T07:23:46;3.47;;;1.10;;
45764;SDS011;31474;45.332;10.230;2024-02-23T07:26:11;1.90;;;1.23;;
45764;SDS011;31474;45.332;10.230;2024-02-23T07:28:37;2.53;;;1.30;;
45764;SDS011;31474;45.332;10.230;2024-02-23T07:31:03;2.95;;;1.20;;
45764;SDS011;31474;45.332;10.230;2024-02-23T07:33:28;2.05;;;1.30;;
45764;SDS011;31474;45.332;10.230;2024-02-23T07:35:54;2.25;;;1.30;;
45764;SDS011;31474;45.332;10.230;2024-02-23T07:38:19;2.88;;;1.20;;
45764;SDS011;31474;45.332;10.230;2024-02-23T07:40:45;3.80;;;1.83;;
45764;SDS011;31474;45.332;10.230;2024-02-23T07:43:11;10.15;;;3.47;;
45764;SDS011;31474;45.332;10.230;2024-02-23T07:45:37;14.48;;;5.25;;
45764;SDS011;31474;45.332;10.230;2024-02-23T07:48:03;13.70;;;4.35;;
45764;SDS011;31474;45.332;10.230;2024-02-23T07:50:29;19.83;;;5.57;;
45764;SDS011;31474;45.332;10.230;2024-02-23T07:52:55;10.27;;;4.28;;
45764;SDS011;31474;45.332;10.230;2024-02-23T07:55:20;12.45;;;4.43;;
45764;SDS011;31474;45.332;10.230;2024-02-23T07:57:47;7.15;;;3.88;;
45764;SDS011;31474;45.332;10.230;2024-02-23T08:00:13;17.70;;;5.05;;
45764;SDS011;31474;45.332;10.230;2024-02-23T08:02:39;7.60;;;3.28;;
45764;SDS011;31474;45.332;10.230;2024-02-23T08:05:05;16.65;;;4.65;;
45764;SDS011;31474;45.332;10.230;2024-02-23T08:07:31;12.00;;;3.85;;
45764;SDS011;31474;45.332;10.230;2024-02-23T08:09:57;14.20;;;5.32;;
45764;SDS011;31474;45.332;10.230;2024-02-23T08:12:23;9.20;;;3.03;;
45764;SDS011;31474;45.332;10.230;2024-02-23T08:14:48;10.95;;;3.80;;
45764;SDS011;31474;45.332;10.230;2024-02-23T08:17:18;10.18;;;3.90;;
45764;SDS011;31474;45.332;10.230;2024-02-23T08:19:44;11.25;;;4.05;;
45764;SDS011;31474;45.332;10.230;2024-02-23T08:22:10;9.93;;;3.25;;
45764;SDS011;31474;45.332;10.230;2024-02-23T08:24:35;8.95;;;3.83;;
45764;SDS011;31474;45.332;10.230;2024-02-23T08:27:01;12.80;;;4.55;;
45764;SDS011;31474;45.332;10.230;2024-02-23T08:29:27;9.50;;;3.20;;
45764;SDS011;31474;45.332;10.230;2024-02-23T08:31:53;6.97;;;3.17;;
45764;SDS011;31474;45.332;10.230;2024-02-23T08:34:19;6.55;;;2.92;;
45764;SDS011;31474;45.332;10.230;2024-02-23T08:36:44;7.32;;;3.28;;
45764;SDS011;31474;45.332;10.230;2024-02-23T08:39:10;8.70;;;3.38;;
45764;SDS011;31474;45.332;10.230;2024-02-23T08:41:36;9.02;;;3.67;;
45764;SDS011;31474;45.332;10.230;2024-02-23T08:44:01;8.18;;;2.97;;
45764;SDS011;31474;45.332;10.230;2024-02-23T08:46:27;9.65;;;3.67;;
45764;SDS011;31474;45.332;10.230;2024-02-23T08:48:53;5.68;;;2.85;;
45764;SDS011;31474;45.332;10.230;2024-02-23T08:51:19;6.90;;;3.20;;
45764;SDS011;31474;45.332;10.230;2024-02-23T08:53:44;5.07;;;2.58;;
45764;SDS011;31474;45.332;10.230;2024-02-23T08:56:10;11.07;;;4.07;;
45764;SDS011;31474;45.332;10.230;2024-02-23T08:58:37;8.75;;;3.20;;
45764;SDS011;31474;45.332;10.230;2024-02-23T09:01:03;6.07;;;2.83;;
45764;SDS011;31474;45.332;10.230;2024-02-23T09:03:30;8.60;;;3.05;;
45764;SDS011;31474;45.332;10.230;2024-02-23T09:05:56;6.07;;;2.53;;
45764;SDS011;31474;45.332;10.230;2024-02-23T09:08:22;9.88;;;3.65;;
45764;SDS011;31474;45.332;10.230;2024-02-23T09:10:48;7.60;;;3.17;;
45764;SDS011;31474;45.332;10.230;2024-02-23T09:13:14;6.03;;;3.63;;
45764;SDS011;31474;45.332;10.230;2024-02-23T09:15:40;5.07;;;2.58;;
45764;SDS011;31474;45.332;10.230;2024-02-23T09:18:07;7.38;;;3.05;;
45764;SDS011;31474;45.332;10.230;2024-02-23T09:20:33;4.82;;;2.45;;
45764;SDS011;31474;45.332;10.230;2024-02-23T09:22:58;6.93;;;3.55;;
45764;SDS011;31474;45.332;10.230;2024-02-23T09:25:24;5.70;;;2.95;;
45764;SDS011;31474;45.332;10.230;2024-02-23T09:27:50;7.07;;;3.00;;
45764;SDS011;31474;45.332;10.230;2024-02-23T09:30:15;6.80;;;2.85;;
45764;SDS011;31474;45.332;10.230;2024-02-23T09:32:41;8.43;;;3.78;;
45764;SDS011;31474;45.332;10.230;2024-02-23T09:35:07;6.53;;;3.55;;
45764;SDS011;31474;45.332;10.230;2024-02-23T09:37:33;5.63;;;2.28;;
45764;SDS011;31474;45.332;10.230;2024-02-23T09:39:59;5.78;;;2.63;;
45764;SDS011;31474;45.332;10.230;2024-02-23T09:42:25;5.18;;;2.17;;
45764;SDS011;31474;45.332;10.230;2024-02-23T09:44:58;5.75;;;2.47;;
45764;SDS011;31474;45.332;10.230;2024-02-23T09:47:28;6.82;;;3.17;;
45764;SDS011;31474;45.332;10.230;2024-02-23T09:49:54;6.07;;;2.15;;
45764;SDS011;31474;45.332;10.230;2024-02-23T09:52:20;6.38;;;2.47;;
45764;SDS011;31474;45.332;10.230;2024-02-23T09:54:47;5.45;;;2.85;;
45764;SDS011;31474;45.332;10.230;2024-02-23T09:57:13;4.25;;;2.08;;
45764;SDS011;31474;45.332;10.230;2024-02-23T09:59:40;5.18;;;2.80;;
45764;SDS011;31474;45.332;10.230;2024-02-23T10:02:07;7.07;;;2.72;;
45764;SDS011;31474;45.332;10.230;2024-02-23T10:04:37;7.00;;;3.00;;
45764;SDS011;31474;45.332;10.230;2024-02-23T10:07:04;7.45;;;2.63;;
45764;SDS011;31474;45.332;10.230;2024-02-23T10:09:31;4.85;;;2.50;;
45764;SDS011;31474;45.332;10.230;2024-02-23T10:11:56;6.20;;;2.63;;
45764;SDS011;31474;45.332;10.230;2024-02-23T10:14:22;5.07;;;2.33;;
45764;SDS011;31474;45.332;10.230;2024-02-23T10:16:48;3.50;;;2.53;;
45764;SDS011;31474;45.332;10.230;2024-02-23T10:19:19;6.38;;;2.70;;
45764;SDS011;31474;45.332;10.230;2024-02-23T10:21:45;5.60;;;2.35;;
45764;SDS011;31474;45.332;10.230;2024-02-23T10:24:12;5.43;;;2.60;;
45764;SDS011;31474;45.332;10.230;2024-02-23T10:26:38;4.55;;;2.20;;
45764;SDS011;31474;45.332;10.230;2024-02-23T10:29:03;5.72;;;2.22;;
45764;SDS011;31474;45.332;10.230;2024-02-23T10:31:33;4.88;;;2.63;;
45764;SDS011;31474;45.332;10.230;2024-02-23T10:34:08;6.63;;;2.58;;
45764;SDS011;31474;45.332;10.230;2024-02-23T10:36:37;4.63;;;2.73;;
45764;SDS011;31474;45.332;10.230;2024-02-23T10:39:05;6.25;;;2.95;;
45764;SDS011;31474;45.332;10.230;2024-02-23T10:41:34;7.18;;;3.22;;
45764;SDS011;31474;45.332;10.230;2024-02-23T10:44:03;6.18;;;2.15;;
45764;SDS011;31474;45.332;10.230;2024-02-23T10:46:30;6.15;;;3.03;;
45764;SDS011;31474;45.332;10.230;2024-02-23T10:48:57;4.95;;;2.30;;
45764;SDS011;31474;45.332;10.230;2024-02-23T10:51:27;4.07;;;1.83;;
45764;SDS011;31474;45.332;10.230;2024-02-23T10:53:53;7.20;;;5.65;;
45764;SDS011;31474;45.332;10.230;2024-02-23T10:56:19;9.70;;;4.07;;
45764;SDS011;31474;45.332;10.230;2024-02-23T10:58:47;4.70;;;2.80;;
45764;SDS011;31474;45.332;10.230;2024-02-23T11:01:13;4.68;;;2.40;;
45764;SDS011;31474;45.332;10.230;2024-02-23T11:03:41;5.13;;;2.90;;
45764;SDS011;31474;45.332;10.230;2024-02-23T11:06:11;5.15;;;2.90;;
45764;SDS011;31474;45.332;10.230;2024-02-23T11:08:37;4.43;;;2.85;;
45764;SDS011;31474;45.332;10.230;2024-02-23T11:11:09;4.75;;;2.97;;
45764;SDS011;31474;45.332;10.230;2024-02-23T11:16:05;4.82;;;3.00;;
45764;SDS011;31474;45.332;10.230;2024-02-23T11:18:34;9.20;;;3.45;;
45764;SDS011;31474;45.332;10.230;2024-02-23T11:21:00;4.72;;;2.40;;
45764;SDS011;31474;45.332;10.230;2024-02-23T11:23:40;6.30;;;3.03;;
45764;SDS011;31474;45.332;10.230;2024-02-23T11:26:12;5.20;;;2.58;;
45764;SDS011;31474;45.332;10.230;2024-02-23T11:28:41;4.63;;;2.72;;
45764;SDS011;31474;45.332;10.230;2024-02-23T11:31:21;4.13;;;2.50;;
45764;SDS011;31474;45.332;10.230;2024-02-23T11:33:49;4.43;;;2.53;;
45764;SDS011;31474;45.332;10.230;2024-02-23T11:36:34;4.35;;;2.60;;
45764;SDS011;31474;45.332;10.230;2024-02-23T11:39:01;3.95;;;1.98;;
45764;SDS011;31474;45.332;10.230;2024-02-23T11:41:28;5.28;;;2.30;;
45764;SDS011;31474;45.332;10.230;2024-02-23T11:43:54;3.22;;;2.33;;
45764;SDS011;31474;45.332;10.230;2024-02-23T11:46:21;8.52;;;2.70;;
45764;SDS011;31474;45.332;10.230;2024-02-23T11:48:47;3.72;;;2.25;;
45764;SDS011;31474;45.332;10.230;2024-02-23T11:51:18;5.28;;;2.72;;
45764;SDS011;31474;45.332;10.230;2024-02-23T11:53:45;4.38;;;2.80;;
45764;SDS011;31474;45.332;10.230;2024-02-23T11:56:12;4.93;;;2.65;;
45764;SDS011;31474;45.332;10.230;2024-02-23T11:58:39;4.65;;;3.10;;
45764;SDS011;31474;45.332;10.230;2024-02-23T12:01:05;5.40;;;2.72;;
45764;SDS011;31474;45.332;10.230;2024-02-23T12:03:32;10.38;;;2.55;;
45764;SDS011;31474;45.332;10.230;2024-02-23T12:05:58;5.60;;;2.58;;
45764;SDS011;31474;45.332;10.230;2024-02-23T12:08:25;9.73;;;4.72;;
45764;SDS011;31474;45.332;10.230;2024-02-23T12:10:53;5.43;;;3.50;;
45764;SDS011;31474;45.332;10.230;2024-02-23T12:13:19;4.38;;;2.88;;
45764;SDS011;31474;45.332;10.230;2024-02-23T12:15:45;6.85;;;3.50;;
45764;SDS011;31474;45.332;10.230;2024-02-23T12:18:12;3.80;;;2.70;;
45764;SDS011;31474;45.332;10.230;2024-02-23T12:20:39;4.47;;;2.72;;
45764;SDS011;31474;45.332;10.230;2024-02-23T12:23:05;4.68;;;2.40;;
45764;SDS011;31474;45.332;10.230;2024-02-23T12:25:33;3.38;;;2.53;;
45764;SDS011;31474;45.332;10.230;2024-02-23T12:27:58;3.13;;;2.10;;
45764;SDS011;31474;45.332;10.230;2024-02-23T12:30:26;5.40;;;2.88;;
45764;SDS011;31474;45.332;10.230;2024-02-23T12:33:03;3.70;;;2.58;;
45764;SDS011;31474;45.332;10.230;2024-02-23T12:35:32;6.07;;;2.58;;
45764;SDS011;31474;45.332;10.230;2024-02-23T12:37:59;8.38;;;4.95;;
45764;SDS011;31474;45.332;10.230;2024-02-23T12:40:24;6.80;;;5.88;;
45764;SDS011;31474;45.332;10.230;2024-02-23T12:42:50;4.63;;;3.90;;
45764;SDS011;31474;45.332;10.230;2024-02-23T12:45:16;8.18;;;4.85;;
45764;SDS011;31474;45.332;10.230;2024-02-23T12:47:42;7.03;;;3.58;;
45764;SDS011;31474;45.332;10.230;2024-02-23T12:50:07;5.60;;;2.88;;
45764;SDS011;31474;45.332;10.230;2024-02-23T12:52:33;7.28;;;4.78;;
45764;SDS011;31474;45.332;10.230;2024-02-23T12:54:59;7.50;;;5.32;;
45764;SDS011;31474;45.332;10.230;2024-02-23T12:57:25;6.63;;;4.43;;
45764;SDS011;31474;45.332;10.230;2024-02-23T12:59:51;12.23;;;6.30;;
45764;SDS011;31474;45.332;10.230;2024-02-23T13:02:16;7.45;;;6.22;;
45764;SDS011;31474;45.332;10.230;2024-02-23T13:04:42;9.73;;;7.28;;
45764;SDS011;31474;45.332;10.230;2024-02-23T13:07:13;9.50;;;7.18;;
45764;SDS011;31474;45.332;10.230;2024-02-23T13:09:39;8.38;;;7.38;;
45764;SDS011;31474;45.332;10.230;2024-02-23T13:12:05;8.13;;;7.43;;
45764;SDS011;31474;45.332;10.230;2024-02-23T13:14:31;7.68;;;6.68;;
45764;SDS011;31474;45.332;10.230;2024-02-23T13:16:56;7.65;;;6.13;;
45764;SDS011;31474;45.332;10.230;2024-02-23T13:19:22;8.00;;;7.20;;
45764;SDS011;31474;45.332;10.230;2024-02-23T13:21:47;11.77;;;7.22;;
45764;SDS011;31474;45.332;10.230;2024-02-23T13:24:13;13.68;;;7.28;;
45764;SDS011;31474;45.332;10.230;2024-02-23T13:26:40;7.63;;;5.85;;
45764;SDS011;31474;45.332;10.230;2024-02-23T13:29:06;8.48;;;6.90;;
45764;SDS011;31474;45.332;10.230;2024-02-23T13:31:31;7.65;;;6.40;;
45764;SDS011;31474;45.332;10.230;2024-02-23T13:33:57;6.38;;;5.75;;
45764;SDS011;31474;45.332;10.230;2024-02-23T13:36:23;7.88;;;6.75;;
45764;SDS011;31474;45.332;10.230;2024-02-23T13:38:48;8.25;;;6.68;;
45764;SDS011;31474;45.332;10.230;2024-02-23T13:41:16;6.55;;;5.95;;
45764;SDS011;31474;45.332;10.230;2024-02-23T13:43:42;10.10;;;6.13;;
45764;SDS011;31474;45.332;10.230;2024-02-23T13:46:07;7.43;;;5.82;;
45764;SDS011;31474;45.332;10.230;2024-02-23T13:48:33;7.00;;;5.85;;
45764;SDS011;31474;45.332;10.230;2024-02-23T13:50:59;9.57;;;6.60;;
45764;SDS011;31474;45.332;10.230;2024-02-23T13:53:28;6.45;;;5.47;;
45764;SDS011;31474;45.332;10.230;2024-02-23T13:55:54;8.38;;;5.93;;
45764;SDS011;31474;45.332;10.230;2024-02-23T13:58:20;7.78;;;5.25;;
45764;SDS011;31474;45.332;10.230;2024-02-23T14:00:46;8.02;;;5.90;;
45764;SDS011;31474;45.332;10.230;2024-02-23T14:03:15;7.85;;;6.03;;
45764;SDS011;31474;45.332;10.230;2024-02-23T14:05:43;6.60;;;5.32;;
45764;SDS011;31474;45.332;10.230;2024-02-23T14:08:10;7.75;;;5.90;;
45764;SDS011;31474;45.332;10.230;2024-02-23T14:10:36;6.30;;;4.80;;
45764;SDS011;31474;45.332;10.230;2024-02-23T14:13:01;9.20;;;5.15;;
45764;SDS011;31474;45.332;10.230;2024-02-23T14:15:27;7.32;;;4.65;;
45764;SDS011;31474;45.332;10.230;2024-02-23T14:17:53;10.98;;;5.95;;
45764;SDS011;31474;45.332;10.230;2024-02-23T14:20:18;6.68;;;4.13;;
45764;SDS011;31474;45.332;10.230;2024-02-23T14:22:44;8.07;;;5.70;;
45764;SDS011;31474;45.332;10.230;2024-02-23T14:25:10;6.38;;;4.78;;
45764;SDS011;31474;45.332;10.230;2024-02-23T14:27:35;6.90;;;4.93;;
45764;SDS011;31474;45.332;10.230;2024-02-23T14:30:01;5.45;;;4.32;;